createdAt,value
2022-07-28T00:01:12.590Z,23.18
2022-07-28T00:03:41.277Z,23.16
2022-07-28T00:06:09.825Z,23.13
2022-07-28T00:08:37.352Z,23.11
2022-07-28T00:11:04.854Z,23.06
2022-07-28T00:13:32.401Z,23.02
2022-07-28T00:15:59.926Z,22.94
2022-07-28T00:18:27.472Z,23.01
2022-07-28T00:20:55.019Z,23.01
2022-07-28T00:23:22.537Z,23.00
2022-07-28T00:25:50.112Z,22.99
2022-07-28T00:28:17.608Z,22.98
2022-07-28T00:30:45.187Z,22.95
2022-07-28T00:33:12.993Z,22.94
2022-07-28T00:35:40.492Z,22.94
2022-07-28T00:38:15.892Z,22.90
2022-07-28T00:41:03.120Z,22.81
2022-07-28T00:43:30.672Z,22.85
2022-07-28T00:45:58.356Z,22.87
2022-07-28T00:48:25.913Z,22.83
2022-07-28T00:50:53.611Z,22.80
2022-07-28T00:53:21.793Z,22.78
2022-07-28T00:56:06.433Z,22.80
2022-07-28T00:58:36.264Z,22.76
2022-07-28T01:01:06.174Z,22.76
2022-07-28T01:03:36.415Z,22.75
2022-07-28T01:06:13.065Z,22.81
2022-07-28T01:09:09.875Z,22.86
2022-07-28T01:12:02.693Z,22.81
2022-07-28T01:14:50.416Z,22.78
2022-07-28T01:17:35.769Z,22.69
2022-07-28T01:20:15.570Z,22.67
2022-07-28T01:22:55.591Z,22.72
2022-07-28T01:25:52.204Z,22.75
2022-07-28T01:28:56.833Z,22.69
2022-07-28T01:31:31.234Z,22.65
2022-07-28T01:34:04.096Z,22.65
2022-07-28T01:36:53.647Z,22.67
2022-07-28T01:39:27.719Z,22.62
2022-07-28T01:41:58.316Z,22.62
2022-07-28T01:44:27.651Z,22.58
2022-07-28T01:46:57.857Z,22.58
2022-07-28T01:49:28.026Z,22.58
2022-07-28T01:52:06.518Z,22.59
2022-07-28T01:54:37.511Z,22.52
2022-07-28T01:57:08.784Z,22.58
2022-07-28T01:59:40.079Z,22.59
2022-07-28T02:02:10.229Z,22.55
2022-07-28T02:04:40.643Z,22.59
2022-07-28T02:07:10.172Z,22.59
2022-07-28T02:09:39.355Z,22.55
2022-07-28T02:12:09.432Z,22.54
2022-07-28T02:14:38.628Z,22.56
2022-07-28T02:17:11.167Z,22.52
2022-07-28T02:19:40.919Z,22.55
2022-07-28T02:22:10.295Z,22.56
2022-07-28T02:24:38.942Z,22.59
2022-07-28T02:27:15.724Z,22.61
2022-07-28T02:29:51.426Z,22.70
2022-07-28T02:32:28.643Z,22.80
2022-07-28T02:35:06.025Z,22.88
2022-07-28T02:37:41.190Z,22.90
2022-07-28T02:40:14.227Z,22.92
2022-07-28T02:42:45.589Z,22.99
2022-07-28T02:45:13.797Z,23.06
2022-07-28T02:47:48.867Z,23.14
2022-07-28T02:50:21.973Z,23.23
2022-07-28T02:52:51.768Z,23.30
2022-07-28T02:55:19.555Z,23.32
2022-07-28T02:57:52.041Z,23.53
2022-07-28T03:00:23.213Z,23.56
2022-07-28T03:02:51.607Z,23.71
2022-07-28T03:05:19.455Z,23.80
2022-07-28T03:07:52.783Z,23.90
2022-07-28T03:10:33.322Z,23.97
2022-07-28T03:13:09.220Z,24.05
2022-07-28T03:15:40.419Z,23.95
2022-07-28T03:18:08.031Z,23.97
2022-07-28T03:20:35.852Z,24.14
2022-07-28T03:23:04.359Z,24.22
2022-07-28T03:25:44.755Z,24.39
2022-07-28T03:28:18.009Z,24.45
2022-07-28T03:30:50.705Z,24.50
2022-07-28T03:33:19.120Z,24.50
2022-07-28T03:35:51.415Z,24.52
2022-07-28T03:38:25.936Z,24.53
2022-07-28T03:40:55.939Z,24.50
2022-07-28T03:43:27.644Z,24.50
2022-07-28T03:45:55.314Z,24.49
2022-07-28T03:48:29.488Z,24.49
2022-07-28T03:50:57.817Z,24.52
2022-07-28T03:53:27.467Z,24.54
2022-07-28T03:55:55.472Z,24.52
2022-07-28T03:58:28.480Z,24.56
2022-07-28T04:00:58.078Z,24.68
2022-07-28T04:03:36.538Z,24.91
2022-07-28T04:06:13.155Z,25.10
2022-07-28T04:08:41.328Z,25.19
2022-07-28T04:11:08.936Z,25.30
2022-07-28T04:13:37.389Z,25.33
2022-07-28T04:16:07.214Z,25.31
2022-07-28T04:18:35.318Z,25.28
2022-07-28T04:21:03.336Z,25.25
2022-07-28T04:23:31.179Z,25.26
2022-07-28T04:25:58.773Z,25.25
2022-07-28T04:28:26.752Z,25.25
2022-07-28T04:30:54.418Z,25.34
2022-07-28T04:33:22.213Z,25.41
2022-07-28T04:35:52.864Z,25.48
2022-07-28T04:38:22.119Z,25.55
2022-07-28T04:40:50.285Z,25.72
2022-07-28T04:43:18.146Z,25.84
2022-07-28T04:45:53.514Z,26.07
2022-07-28T04:48:23.473Z,26.19
2022-07-28T04:50:53.214Z,26.37
2022-07-28T04:53:22.735Z,26.49
2022-07-28T04:55:53.594Z,26.70
2022-07-28T04:58:22.650Z,26.77
2022-07-28T05:00:51.258Z,26.88
2022-07-28T05:03:19.978Z,26.96
2022-07-28T05:05:53.893Z,27.08
2022-07-28T05:08:26.555Z,27.18
2022-07-28T05:10:57.426Z,27.25
2022-07-28T05:13:28.961Z,27.42
2022-07-28T05:15:59.416Z,27.56
2022-07-28T05:18:26.989Z,27.75
2022-07-28T05:20:54.670Z,27.70
2022-07-28T05:23:22.295Z,27.56
2022-07-28T05:25:50.070Z,27.58
2022-07-28T05:28:17.745Z,27.57
2022-07-28T05:30:45.473Z,27.69
2022-07-28T05:33:15.681Z,27.82
2022-07-28T05:35:44.902Z,27.96
2022-07-28T05:38:12.663Z,28.12
2022-07-28T05:40:40.304Z,28.20
2022-07-28T05:43:07.911Z,28.23
2022-07-28T05:45:35.739Z,28.25
2022-07-28T05:48:03.310Z,28.32
2022-07-28T05:50:30.846Z,28.36
2022-07-28T05:53:00.720Z,28.45
2022-07-28T05:55:28.878Z,28.35
2022-07-28T05:57:57.774Z,28.28
2022-07-28T06:00:25.336Z,28.25
2022-07-28T06:02:53.160Z,28.44
2022-07-28T06:05:23.260Z,28.80
2022-07-28T06:07:51.717Z,29.01
2022-07-28T06:10:21.612Z,29.10
2022-07-28T06:12:53.957Z,28.99
2022-07-28T06:15:23.855Z,28.94
2022-07-28T06:17:53.355Z,28.83
2022-07-28T06:20:22.040Z,28.78
2022-07-28T06:22:52.651Z,28.75
2022-07-28T06:25:23.043Z,28.69
2022-07-28T06:27:52.302Z,28.72
2022-07-28T06:30:20.233Z,28.79
2022-07-28T06:32:48.549Z,28.70
2022-07-28T06:35:17.344Z,28.70
2022-07-28T06:37:49.314Z,28.95
2022-07-28T06:40:19.039Z,29.22
2022-07-28T06:42:47.345Z,29.44
2022-07-28T06:45:19.624Z,29.53
2022-07-28T06:47:50.500Z,29.76
2022-07-28T06:50:24.587Z,30.03
2022-07-28T06:52:59.839Z,30.30
2022-07-28T06:55:34.528Z,30.51
2022-07-28T06:58:06.240Z,30.83
2022-07-28T07:00:36.281Z,30.94
2022-07-28T07:03:09.587Z,31.13
2022-07-28T07:05:39.886Z,31.47
2022-07-28T07:08:07.492Z,31.66
2022-07-28T07:10:37.319Z,31.68
2022-07-28T07:13:04.951Z,31.77
2022-07-28T07:15:32.621Z,31.84
2022-07-28T07:18:02.757Z,31.98
2022-07-28T07:20:30.260Z,32.17
2022-07-28T07:22:57.840Z,32.57
2022-07-28T07:25:25.350Z,32.81
2022-07-28T07:27:52.909Z,33.07
2022-07-28T07:30:20.404Z,33.47
2022-07-28T07:32:48.079Z,33.65
2022-07-28T07:35:15.654Z,33.77
2022-07-28T07:37:43.181Z,33.71
2022-07-28T07:40:10.752Z,33.72
2022-07-28T07:42:44.986Z,33.90
2022-07-28T07:45:12.720Z,34.19
2022-07-28T07:47:41.020Z,34.32
2022-07-28T07:50:08.825Z,34.47
2022-07-28T07:52:36.380Z,34.61
2022-07-28T07:55:04.973Z,34.93
2022-07-28T07:57:32.444Z,35.10
2022-07-28T08:00:00.044Z,35.23
2022-07-28T08:02:27.512Z,34.73
2022-07-28T08:04:56.357Z,34.08
2022-07-28T08:07:24.363Z,33.62
2022-07-28T08:09:52.240Z,33.32
2022-07-28T08:12:25.234Z,33.35
2022-07-28T08:14:56.653Z,33.44
2022-07-28T08:17:26.235Z,33.19
2022-07-28T08:19:54.671Z,32.88
2022-07-28T08:22:22.817Z,32.91
2022-07-28T08:24:50.436Z,32.61
2022-07-28T08:27:18.732Z,32.68
2022-07-28T08:29:46.296Z,32.62
2022-07-28T08:32:14.075Z,32.15
2022-07-28T08:34:41.616Z,31.68
2022-07-28T08:37:09.144Z,31.36
2022-07-28T08:39:37.079Z,31.51
2022-07-28T08:42:10.381Z,32.30
2022-07-28T08:44:49.639Z,33.06
2022-07-28T08:47:19.350Z,32.70
2022-07-28T08:49:51.988Z,32.08
2022-07-28T08:52:21.777Z,31.75
2022-07-28T08:54:50.899Z,31.92
2022-07-28T08:57:26.789Z,31.80
2022-07-28T08:59:55.123Z,31.44
2022-07-28T09:02:27.110Z,31.00
2022-07-28T09:04:56.275Z,30.72
2022-07-28T09:07:27.140Z,30.56
2022-07-28T09:09:57.262Z,31.50
2022-07-28T09:12:28.069Z,32.86
2022-07-28T09:14:55.575Z,33.87
2022-07-28T09:17:23.086Z,35.04
2022-07-28T09:19:50.668Z,36.13
2022-07-28T09:22:18.131Z,36.92
2022-07-28T09:24:46.709Z,37.48
2022-07-28T09:27:16.204Z,38.03
2022-07-28T09:29:59.982Z,39.10
2022-07-28T09:32:27.757Z,39.14
2022-07-28T09:34:55.337Z,39.32
2022-07-28T09:37:28.430Z,39.35
2022-07-28T09:40:03.914Z,39.12
2022-07-28T09:42:45.482Z,39.97
2022-07-28T09:45:23.083Z,39.26
2022-07-28T09:48:09.605Z,39.58
2022-07-28T09:50:37.477Z,40.19
2022-07-28T09:53:24.459Z,40.24
2022-07-28T09:56:01.623Z,40.06
2022-07-28T09:58:32.455Z,40.04
2022-07-28T10:01:21.144Z,38.63
2022-07-28T10:03:56.108Z,37.55
2022-07-28T10:06:34.182Z,36.22
2022-07-28T10:09:03.739Z,34.72
2022-07-28T10:11:31.337Z,33.84
2022-07-28T10:14:05.579Z,33.27
2022-07-28T10:16:43.387Z,32.97
2022-07-28T10:19:10.893Z,32.94
2022-07-28T10:21:45.099Z,33.27
2022-07-28T10:24:22.177Z,33.65
2022-07-28T10:26:52.691Z,34.73
2022-07-28T10:29:22.559Z,34.54
2022-07-28T10:31:54.722Z,33.71
2022-07-28T10:34:35.643Z,32.93
2022-07-28T10:37:04.640Z,32.36
2022-07-28T10:39:41.797Z,31.81
2022-07-28T10:42:11.833Z,31.36
2022-07-28T10:44:41.705Z,31.20
2022-07-28T10:47:09.910Z,31.29
2022-07-28T10:49:48.694Z,32.55
2022-07-28T10:52:46.677Z,33.57
2022-07-28T10:55:20.713Z,34.54
2022-07-28T10:58:34.226Z,35.02
2022-07-28T11:01:05.924Z,35.66
2022-07-28T11:03:40.456Z,36.63
2022-07-28T11:06:31.601Z,36.24
2022-07-28T11:09:17.236Z,35.04
2022-07-28T11:11:46.899Z,33.92
2022-07-28T11:14:24.466Z,33.74
2022-07-28T11:17:01.086Z,33.54
2022-07-28T11:19:42.374Z,32.67
2022-07-28T11:22:22.288Z,32.16
2022-07-28T11:24:59.613Z,32.18
2022-07-28T11:27:49.968Z,31.65
2022-07-28T11:30:32.192Z,30.93
2022-07-28T11:33:01.145Z,29.95
2022-07-28T11:35:31.356Z,29.51
2022-07-28T11:38:01.947Z,29.26
2022-07-28T11:40:33.727Z,28.99
2022-07-28T11:43:33.336Z,28.90
2022-07-28T11:46:07.758Z,28.45
2022-07-28T11:48:40.562Z,28.07
2022-07-28T11:51:08.103Z,27.81
2022-07-28T11:53:52.624Z,27.63
2022-07-28T11:56:29.220Z,27.34
2022-07-28T11:59:07.930Z,27.10
2022-07-28T12:01:38.193Z,26.79
2022-07-28T12:04:15.360Z,26.67
2022-07-28T12:06:49.414Z,26.62
2022-07-28T12:09:25.317Z,26.59
2022-07-28T12:11:57.841Z,26.78
2022-07-28T12:14:33.872Z,27.01
2022-07-28T12:17:05.406Z,27.11
2022-07-28T12:19:33.434Z,26.96
2022-07-28T12:22:01.231Z,26.86
2022-07-28T12:24:45.726Z,26.89
2022-07-28T12:27:14.915Z,26.85
2022-07-28T12:29:43.188Z,26.71
2022-07-28T12:32:13.888Z,26.74
2022-07-28T12:34:42.478Z,26.68
2022-07-28T12:37:10.251Z,26.73
2022-07-28T12:39:43.465Z,26.71
2022-07-28T12:42:15.693Z,26.83
2022-07-28T12:44:45.071Z,26.83
2022-07-28T12:47:17.774Z,26.89
2022-07-28T12:49:56.296Z,27.01
2022-07-28T12:52:26.008Z,27.08
2022-07-28T12:54:55.700Z,27.14
2022-07-28T12:57:49.784Z,27.24
2022-07-28T13:00:20.559Z,27.09
2022-07-28T13:02:50.213Z,26.98
2022-07-28T13:06:04.944Z,26.97
2022-07-28T13:08:44.750Z,26.78
2022-07-28T13:11:42.384Z,26.63
2022-07-28T13:14:03.182Z,26.62
2022-07-28T13:16:30.979Z,26.45
2022-07-28T13:19:03.989Z,25.97
2022-07-28T13:21:37.933Z,25.39
2022-07-28T13:24:05.787Z,24.90
2022-07-28T13:26:33.288Z,24.44
2022-07-28T13:29:02.229Z,24.12
2022-07-28T13:31:32.285Z,23.79
2022-07-28T13:33:59.847Z,23.52
2022-07-28T13:36:27.420Z,23.34
2022-07-28T13:38:54.974Z,23.08
2022-07-28T13:41:22.775Z,23.07
2022-07-28T13:43:50.715Z,22.98
2022-07-28T13:46:19.364Z,22.96
2022-07-28T13:48:59.947Z,22.89
2022-07-28T13:51:29.083Z,22.72
2022-07-28T13:53:56.763Z,22.70
2022-07-28T13:56:24.548Z,22.63
2022-07-28T13:58:52.043Z,22.57
2022-07-28T14:01:19.705Z,22.55
2022-07-28T14:03:55.837Z,22.51
2022-07-28T14:06:25.345Z,22.45
2022-07-28T14:08:53.337Z,22.50
2022-07-28T14:11:21.877Z,22.53
2022-07-28T14:13:52.237Z,22.50
2022-07-28T14:16:21.031Z,22.61
2022-07-28T14:18:49.575Z,22.59
2022-07-28T14:21:17.733Z,22.62
2022-07-28T14:23:49.814Z,22.67
2022-07-28T14:26:34.920Z,22.63
2022-07-28T14:29:04.878Z,22.72
2022-07-28T14:31:39.407Z,22.82
2022-07-28T14:34:08.252Z,22.98
2022-07-28T14:36:35.911Z,23.09
2022-07-28T14:39:06.670Z,23.24
2022-07-28T14:41:37.119Z,23.37
2022-07-28T14:44:04.872Z,23.50
2022-07-28T14:46:32.479Z,23.56
2022-07-28T14:49:00.035Z,23.59
2022-07-28T14:51:27.572Z,23.72
2022-07-28T14:53:57.912Z,23.86
2022-07-28T14:56:25.467Z,23.85
2022-07-28T14:58:52.991Z,23.96
2022-07-28T15:01:20.576Z,24.10
2022-07-28T15:03:48.176Z,24.13
2022-07-28T15:06:15.657Z,24.15
2022-07-28T15:08:43.134Z,24.10
2022-07-28T15:11:10.667Z,24.00
2022-07-28T15:13:38.278Z,23.92
2022-07-28T15:16:06.447Z,23.91
2022-07-28T15:18:35.187Z,23.78
2022-07-28T15:21:03.042Z,23.92
2022-07-28T15:23:30.482Z,23.89
2022-07-28T15:25:58.744Z,23.92
2022-07-28T15:28:26.271Z,23.97
2022-07-28T15:30:54.562Z,24.05
2022-07-28T15:33:22.251Z,24.02
2022-07-28T15:35:56.535Z,24.12
2022-07-28T15:38:29.194Z,24.11
2022-07-28T15:41:00.139Z,24.10
2022-07-28T15:43:28.773Z,24.15
2022-07-28T15:45:57.493Z,24.13
2022-07-28T15:48:25.056Z,24.14
2022-07-28T15:50:52.893Z,24.13
2022-07-28T15:53:20.512Z,24.15
2022-07-28T15:55:51.271Z,24.17
2022-07-28T15:58:21.171Z,24.18
2022-07-28T16:00:52.030Z,24.18
2022-07-28T16:03:21.828Z,24.21
2022-07-28T16:05:50.375Z,24.21
2022-07-28T16:08:22.492Z,24.18
2022-07-28T16:10:52.979Z,24.17
2022-07-28T16:13:36.177Z,24.09
2022-07-28T16:16:07.372Z,24.08
2022-07-28T16:18:36.933Z,24.00
2022-07-28T16:21:05.516Z,23.99
2022-07-28T16:23:33.268Z,23.92
2022-07-28T16:26:01.044Z,23.93
2022-07-28T16:28:28.635Z,23.86
2022-07-28T16:30:56.130Z,23.78
2022-07-28T16:33:23.873Z,23.72
2022-07-28T16:35:52.331Z,23.66
2022-07-28T16:38:20.880Z,23.59
2022-07-28T16:40:48.431Z,23.59
2022-07-28T16:43:16.026Z,23.51
2022-07-28T16:45:43.531Z,23.47
2022-07-28T16:48:11.131Z,23.44
2022-07-28T16:50:39.011Z,23.40
2022-07-28T16:53:09.061Z,23.37
2022-07-28T16:55:36.705Z,23.38
2022-07-28T16:58:04.166Z,23.30
2022-07-28T17:00:31.846Z,23.27
2022-07-28T17:02:59.298Z,23.22
2022-07-28T17:05:26.879Z,23.11
2022-07-28T17:07:54.437Z,23.19
2022-07-28T17:10:27.194Z,23.16
2022-07-28T17:12:55.325Z,23.14
2022-07-28T17:15:23.438Z,23.16
2022-07-28T17:17:52.372Z,23.14
2022-07-28T17:20:21.175Z,23.11
2022-07-28T17:22:48.888Z,23.10
2022-07-28T17:28:05.455Z,23.07
2022-07-28T17:30:33.996Z,23.09
2022-07-28T17:33:07.865Z,23.05
2022-07-28T17:35:37.132Z,23.10
2022-07-28T17:38:07.437Z,23.09
2022-07-28T17:40:37.309Z,23.11
2022-07-28T17:43:04.771Z,23.10
2022-07-28T17:45:32.378Z,23.03
2022-07-28T17:47:59.859Z,23.05
2022-07-28T17:50:27.497Z,22.97
2022-07-28T17:52:54.969Z,22.84
2022-07-28T17:55:40.681Z,22.76
2022-07-28T17:58:34.021Z,22.58
2022-07-28T18:01:09.350Z,22.57
2022-07-28T18:03:59.424Z,22.41
2022-07-28T18:06:30.481Z,22.28
2022-07-28T18:09:05.723Z,22.28
2022-07-28T18:11:56.783Z,22.23
2022-07-28T18:14:27.656Z,22.11
2022-07-28T18:16:56.007Z,22.03
2022-07-28T18:19:23.547Z,21.94
2022-07-28T18:21:51.933Z,21.92
2022-07-28T18:24:22.254Z,21.84
2022-07-28T18:26:51.544Z,21.77
2022-07-28T18:29:21.452Z,21.64
2022-07-28T18:31:50.917Z,21.50
2022-07-28T18:34:20.817Z,21.51
2022-07-28T18:36:51.232Z,21.44
2022-07-28T18:39:18.796Z,21.36
2022-07-28T18:41:47.776Z,21.40
2022-07-28T18:44:19.501Z,21.41
2022-07-28T18:46:47.586Z,21.36
2022-07-28T18:49:15.401Z,21.27
2022-07-28T18:51:44.939Z,21.26
2022-07-28T18:54:18.606Z,21.30
2022-07-28T18:56:46.853Z,21.30
2022-07-28T18:59:16.959Z,21.31
2022-07-28T19:01:47.072Z,21.20
2022-07-28T19:04:17.719Z,21.26
2022-07-28T19:06:45.683Z,21.24
2022-07-28T19:09:13.166Z,21.18
2022-07-28T19:11:45.686Z,21.16
2022-07-28T19:14:15.512Z,21.16
2022-07-28T19:16:45.865Z,21.19
2022-07-28T19:19:16.154Z,21.14
2022-07-28T19:21:46.307Z,21.13
2022-07-28T19:24:17.474Z,21.04
2022-07-28T19:26:53.900Z,21.07
2022-07-28T19:29:23.140Z,20.99
2022-07-28T19:31:50.755Z,20.91
2022-07-28T19:34:18.795Z,20.85
2022-07-28T19:36:47.208Z,20.79
2022-07-28T19:39:14.837Z,20.74
2022-07-28T19:41:44.850Z,20.53
2022-07-28T19:44:12.618Z,20.45
2022-07-28T19:46:40.935Z,20.42
2022-07-28T19:49:09.419Z,20.25
2022-07-28T19:51:37.007Z,20.25
2022-07-28T19:54:05.361Z,20.18
2022-07-28T19:56:32.955Z,20.13
2022-07-28T19:59:01.932Z,20.08
2022-07-28T20:01:29.537Z,20.02
2022-07-28T20:04:02.983Z,19.91
2022-07-28T20:06:33.044Z,19.91
2022-07-28T20:09:01.706Z,19.78
2022-07-28T20:11:29.459Z,19.86
2022-07-28T20:13:57.260Z,19.71
2022-07-28T20:16:25.228Z,19.67
2022-07-28T20:18:52.974Z,19.67
2022-07-28T20:21:21.452Z,19.71
2022-07-28T20:23:49.267Z,19.58
2022-07-28T20:26:23.940Z,19.71
2022-07-28T20:28:52.363Z,19.69
2022-07-28T20:31:20.572Z,19.56
2022-07-28T20:33:51.241Z,19.60
2022-07-28T20:36:18.758Z,19.54
2022-07-28T20:38:46.459Z,19.65
2022-07-28T20:41:16.939Z,19.59
2022-07-28T20:43:44.508Z,19.47
2022-07-28T20:46:12.002Z,19.49
2022-07-28T20:48:39.592Z,19.55
2022-07-28T20:51:09.250Z,19.43
2022-07-28T20:53:37.896Z,19.50
2022-07-28T20:56:05.471Z,19.48
2022-07-28T20:58:33.277Z,19.43
2022-07-28T21:01:02.160Z,19.43
2022-07-28T21:03:29.861Z,19.23
2022-07-28T21:06:05.247Z,19.25
2022-07-28T21:08:35.662Z,19.30
2022-07-28T21:11:07.828Z,19.27
2022-07-28T21:13:35.349Z,19.24
2022-07-28T21:16:02.912Z,19.24
2022-07-28T21:18:32.881Z,19.21
2022-07-28T21:21:00.701Z,19.19
2022-07-28T21:23:28.324Z,19.19
2022-07-28T21:25:55.878Z,19.26
2022-07-28T21:28:41.741Z,19.24
2022-07-28T21:31:12.267Z,19.28
2022-07-28T21:33:39.965Z,19.24
2022-07-28T21:36:08.160Z,19.21
2022-07-28T21:38:36.102Z,19.09
2022-07-28T21:41:03.947Z,19.13
2022-07-28T21:43:31.677Z,19.03
2022-07-28T21:45:59.204Z,19.08
2022-07-28T21:48:27.145Z,19.05
2022-07-28T21:50:54.760Z,19.04
2022-07-28T21:53:22.383Z,19.02
2022-07-28T21:55:52.800Z,18.96
2022-07-28T21:58:20.423Z,19.01
2022-07-28T22:00:48.027Z,19.03
2022-07-28T22:03:15.585Z,18.94
2022-07-28T22:05:43.151Z,19.03
2022-07-28T22:08:10.955Z,18.92
2022-07-28T22:10:38.511Z,18.98
2022-07-28T22:13:06.039Z,18.87
2022-07-28T22:15:33.681Z,18.96
2022-07-28T22:18:01.315Z,18.92
2022-07-28T22:20:28.881Z,18.94
2022-07-28T22:22:56.449Z,18.96
2022-07-28T22:25:23.979Z,19.07
2022-07-28T22:27:51.529Z,19.04
2022-07-28T22:30:19.280Z,19.06
2022-07-28T22:32:46.878Z,19.08
2022-07-28T22:35:16.531Z,19.04
2022-07-28T22:37:46.223Z,19.04
2022-07-28T22:40:17.384Z,19.08
2022-07-28T22:42:48.835Z,19.12
2022-07-28T22:45:16.624Z,19.12
2022-07-28T22:48:04.530Z,19.09
2022-07-28T22:50:32.361Z,19.11
2022-07-28T22:53:00.089Z,19.11
2022-07-28T22:55:28.294Z,19.12
2022-07-28T22:57:56.449Z,19.06
2022-07-28T23:00:24.653Z,19.12
2022-07-28T23:02:52.890Z,19.05
2022-07-28T23:05:24.116Z,19.07
2022-07-28T23:07:57.016Z,19.07
2022-07-28T23:10:25.837Z,19.05
2022-07-28T23:12:56.137Z,18.98
2022-07-28T23:15:39.526Z,19.05
2022-07-28T23:18:12.599Z,18.92
2022-07-28T23:20:41.923Z,18.96
2022-07-28T23:23:10.823Z,19.00
2022-07-28T23:25:41.576Z,19.03
2022-07-28T23:28:09.757Z,18.96
2022-07-28T23:30:38.667Z,18.98
2022-07-28T23:33:06.892Z,19.02
2022-07-28T23:35:36.530Z,18.93
2022-07-28T23:38:04.721Z,18.94
2022-07-28T23:40:32.910Z,18.97
2022-07-28T23:43:01.459Z,18.96
2022-07-28T23:45:29.575Z,18.95
2022-07-28T23:47:59.017Z,18.92
2022-07-28T23:50:28.022Z,18.94
2022-07-28T23:52:56.163Z,18.87
2022-07-28T23:55:27.862Z,18.79
2022-07-28T23:57:55.929Z,18.69
